Terminal Aerodrome Forecast
Issued by NWS Brownsville, TX

Home | Current Version | Previous Version | Text Only | Print | Product List | Glossary On
Versions: 1 2 3 4 5 6 7 8 9 10 11 12 13 14 15 16 17 18
000
FTUS44 KBRO 191133
TAFMFE
TAF
KMFE 191133Z 1912/2012 15015G23KT 6SM HZ BKN015
      TEMPO 1912/1915 5SM BR SCT015 BKN025
     FM191600 14012KT 5SM BR SCT020 BKN250
      TEMPO 1916/1918 BKN020
     FM191800 16014G20KT P6SM SCT045 BKN250
     FM200300 14013KT P6SM BKN020
     FM200400 VRB05KT 2SM TSRA OVC025CB
      TEMPO 2004/2008 VRB20G35KT 1SM +TSRA SQ OVC015CB
     FM200800 VRB05KT P6SM -SHRA BKN080 OVC150
      TEMPO 2008/2010 4SM -TSRA BKN030CB=

USA.gov is the U.S. government's official web portal to all federal, state and local government web resources and services.